Last 24 Hours

BDVWA

Hourly Data | America/Los_Angeles
as of 9/2/26 4:11 PM PDT
Date & Time Temp (°F) RH (%) Dew Pt (°F) Wind Dir (°) Wind Spd (mph) Wind Gust (mph) Wind Gst Dir (°) Pressure (mb) Barometric Press (inHg) Soil Temp (°F) Solar Rad (W/m2) Latest Rain (In) Daily Rain (In) Daily Min Temp (°F) Daily Max Temp (°F) Daily Max Wind (mph) Daily ETo (in)
9/2/26 - 1600 86.4 13 29.7 S | 184 7.7 18.6 S | 190 1,006.7 29.70 90.0 739 0.00 0.00 60.0 87.7 28.7 0.225
9/2/26 - 1500 85.7 12 26.8 S | 187 10.0 21.3 SSW | 196 1,007.4 29.72 90.1 878 0.00 0.00 60.0 87.7 28.7 0.199
9/2/26 - 1400 86.0 10 22.6 S | 184 12.1 28.7 SSW | 196 1,007.7 29.73 90.3 960 0.00 0.00 60.0 87.7 28.7 0.167
9/2/26 - 1300 84.6 11 23.5 S | 182 8.4 23.0 SE | 144 1,008.7 29.76 90.5 977 0.00 0.00 60.0 86.3 23.0 0.132
9/2/26 - 1200 80.7 14 27.1 ENE | 70 4.3 10.5 E | 95 1,010.1 29.80 90.7 929 0.00 0.00 60.0 83.3 10.7 0.099
9/2/26 - 1100 77.4 16 27.2 NE | 50 3.6 9.0 ENE | 75 1,011.2 29.83 90.9 820 0.00 0.00 60.0 79.2 10.7 0.071
9/2/26 - 1000 75.3 17 27.6 NNE | 31 3.4 8.8 N | 350 1,011.5 29.84 91.1 655 0.00 0.00 60.0 76.2 10.7 0.047
9/2/26 - 0900 73.6 18 28.1 NE | 51 2.7 7.0 NE | 40 1,011.6 29.84 91.3 444 0.00 0.00 60.0 75.2 10.7 0.029
9/2/26 - 0800 67.9 19 23.7 WNW | 291 2.6 6.8 W | 275 1,012.7 29.87 91.5 215 0.00 0.00 60.0 72.3 10.7 0.017
9/2/26 - 0700 62.6 21 22.3 W | 266 5.3 10.1 W | 259 1,013.5 29.90 91.7 38 0.00 0.00 60.0 68.0 10.7 0.012
9/2/26 - 0600 61.5 23 23.4 W | 261 5.4 9.2 W | 266 1,013.6 29.90 91.8 0 0.00 0.00 60.0 68.0 10.7 0.010
9/2/26 - 0500 62.1 24 24.9 W | 262 4.5 10.7 WSW | 244 1,013.4 29.90 91.9 0 0.00 0.00 60.0 68.0 10.7 0.008
9/2/26 - 0400 61.9 25 25.7 W | 269 5.4 9.2 WSW | 257 1,013.4 29.90 92.0 0 0.00 0.00 60.1 68.0 10.1 0.006
9/2/26 - 0300 65.3 25 28.8 W | 264 5.6 9.2 SW | 220 1,012.8 29.88 92.0 0 0.00 0.00 62.7 68.0 10.1 0.004
9/2/26 - 0200 66.2 22 26.5 W | 262 5.1 10.1 WSW | 256 1,012.7 29.88 92.0 0 0.00 0.00 64.8 68.0 10.1 0.002
9/2/26 - 0100 66.3 23 27.6 WSW | 256 4.7 10.7 WSW | 241 1,012.5 29.87 92.0 0 0.00 0.00 63.6 87.6 32.9 0.316
9/2/26 - 0000 68.6 24 30.0 WSW | 253 5.7 9.6 WSW | 253 1,011.8 29.85 92.0 0 0.00 0.00 63.6 87.6 32.9 0.314
9/1/26 - 2300 68.4 26 32.7 WSW | 251 4.5 7.9 WSW | 244 1,011.9 29.85 91.9 0 0.00 0.00 63.6 87.6 32.9 0.312
9/1/26 - 2200 70.9 28 36.2 WSW | 255 5.1 10.3 WSW | 239 1,011.2 29.83 91.8 0 0.00 0.00 63.6 87.6 32.9 0.310
9/1/26 - 2100 73.5 28 38.1 SW | 228 7.7 14.5 SSW | 200 1,009.7 29.79 91.7 0 0.00 0.00 63.6 87.6 32.9 0.308
9/1/26 - 2000 75.6 27 39.7 SSW | 207 6.6 15.3 SW | 236 1,008.7 29.76 91.6 2 0.00 0.00 63.6 87.6 32.9 0.305
9/1/26 - 1900 79.4 25 40.7 SSW | 194 11.8 25.9 S | 169 1,007.4 29.72 91.5 113 0.00 0.00 63.6 87.6 32.9 0.301
9/1/26 - 1800 83.2 20 38.2 S | 180 12.0 22.1 S | 190 1,006.7 29.70 91.5 330 0.00 0.00 63.6 87.6 32.9 0.291
9/1/26 - 1700 85.1 18 36.8 S | 188 13.0 26.7 S | 191 1,006.5 29.69 91.5 545 0.00 0.00 63.6 87.6 32.9 0.273
9/1/26 - 1600 85.7 15 32.8 S | 175 14.4 28.9 S | 172 1,006.5 29.69 91.5 731 0.00 0.00 63.6 87.6 32.9 0.249
Max 86.4 28 40.7 - 14.4 28.9 - 1,013.6 29.90 92.0 977 0.00 0.00 64.8 87.7 32.9 0.316
Avg 74.2 20 29.6 - 6.9 14.6 - 1,010.4 29.81 91.4 335 0.00 - - - - -
Min 61.5 10 22.3 - 2.6 6.8 - 1,006.5 29.69 90.0 0 0.00 0.00 60.0 68.0 10.1 0.002
Total - - - - - - - - - - - 0.00 - - - - -